sensor_id;sensor_type;location;lat;lon;timestamp;pressure;altitude;pressure_sealevel;temperature;humidity
13612;BME280;6877;51.436;6.774;2023-05-02T00:00:32;101387.25;;;9.07;100.00
13612;BME280;6877;51.436;6.774;2023-05-02T00:02:59;101393.31;;;9.21;100.00
13612;BME280;6877;51.436;6.774;2023-05-02T00:05:31;101399.34;;;9.43;100.00
13612;BME280;6877;51.436;6.774;2023-05-02T00:07:57;101401.88;;;9.63;100.00
13612;BME280;6877;51.436;6.774;2023-05-02T00:10:24;101399.16;;;9.83;100.00
13612;BME280;6877;51.436;6.774;2023-05-02T00:12:50;101398.25;;;9.96;100.00
13612;BME280;6877;51.436;6.774;2023-05-02T00:15:17;101398.19;;;10.01;100.00
13612;BME280;6877;51.436;6.774;2023-05-02T00:17:43;101407.78;;;10.04;100.00
13612;BME280;6877;51.436;6.774;2023-05-02T00:20:11;101405.13;;;10.05;100.00
13612;BME280;6877;51.436;6.774;2023-05-02T00:22:38;101406.06;;;10.00;100.00
13612;BME280;6877;51.436;6.774;2023-05-02T00:25:05;101406.97;;;9.91;100.00
13612;BME280;6877;51.436;6.774;2023-05-02T00:27:31;101407.03;;;9.82;100.00
13612;BME280;6877;51.436;6.774;2023-05-02T00:29:58;101402.72;;;9.70;100.00
13612;BME280;6877;51.436;6.774;2023-05-02T00:32:25;101408.00;;;9.55;100.00
13612;BME280;6877;51.436;6.774;2023-05-02T00:34:52;101404.59;;;9.40;100.00
13612;BME280;6877;51.436;6.774;2023-05-02T00:37:19;101406.34;;;9.26;100.00
13612;BME280;6877;51.436;6.774;2023-05-02T00:39:45;101414.19;;;9.17;100.00
13612;BME280;6877;51.436;6.774;2023-05-02T00:42:12;101410.75;;;9.05;100.00
13612;BME280;6877;51.436;6.774;2023-05-02T00:44:38;101414.25;;;8.94;100.00
13612;BME280;6877;51.436;6.774;2023-05-02T00:47:05;101412.50;;;8.82;100.00
13612;BME280;6877;51.436;6.774;2023-05-02T00:49:32;101411.66;;;8.74;100.00
13612;BME280;6877;51.436;6.774;2023-05-02T00:52:02;101413.41;;;8.63;100.00
13612;BME280;6877;51.436;6.774;2023-05-02T00:54:30;101413.41;;;8.58;100.00
13612;BME280;6877;51.436;6.774;2023-05-02T00:56:56;101413.38;;;8.50;100.00
13612;BME280;6877;51.436;6.774;2023-05-02T00:59:23;101416.88;;;8.46;100.00
13612;BME280;6877;51.436;6.774;2023-05-02T01:05:09;101426.44;;;8.79;100.00
13612;BME280;6877;51.436;6.774;2023-05-02T01:08:00;101429.03;;;9.02;100.00
13612;BME280;6877;51.436;6.774;2023-05-02T01:10:50;101435.09;;;9.20;100.00
13612;BME280;6877;51.436;6.774;2023-05-02T01:13:28;101434.22;;;9.30;100.00
13612;BME280;6877;51.436;6.774;2023-05-02T01:16:02;101432.47;;;9.37;100.00
13612;BME280;6877;51.436;6.774;2023-05-02T01:18:31;101437.66;;;9.41;100.00
13612;BME280;6877;51.436;6.774;2023-05-02T01:21:05;101438.53;;;9.46;100.00
13612;BME280;6877;51.436;6.774;2023-05-02T01:28:58;101435.88;;;9.57;100.00
13612;BME280;6877;51.436;6.774;2023-05-02T01:31:28;101434.97;;;9.58;100.00
13612;BME280;6877;51.436;6.774;2023-05-02T01:33:55;101444.56;;;9.61;100.00
13612;BME280;6877;51.436;6.774;2023-05-02T01:36:24;101443.69;;;9.63;100.00
13612;BME280;6877;51.436;6.774;2023-05-02T01:38:59;101450.66;;;9.66;100.00
13612;BME280;6877;51.436;6.774;2023-05-02T01:41:28;101445.41;;;9.70;100.00
13612;BME280;6877;51.436;6.774;2023-05-02T01:43:57;101452.38;;;9.70;100.00
13612;BME280;6877;51.436;6.774;2023-05-02T01:46:27;101454.13;;;9.71;100.00
13612;BME280;6877;51.436;6.774;2023-05-02T01:48:58;101456.69;;;9.74;100.00
13612;BME280;6877;51.436;6.774;2023-05-02T01:51:32;101462.81;;;9.76;100.00
13612;BME280;6877;51.436;6.774;2023-05-02T01:54:02;101467.13;;;9.80;100.00
13612;BME280;6877;51.436;6.774;2023-05-02T01:56:33;101473.25;;;9.79;100.00
13612;BME280;6877;51.436;6.774;2023-05-02T01:59:07;101473.25;;;9.81;100.00
13612;BME280;6877;51.436;6.774;2023-05-02T02:01:37;101475.00;;;9.82;100.00
13612;BME280;6877;51.436;6.774;2023-05-02T02:04:05;101481.97;;;9.84;100.00
13612;BME280;6877;51.436;6.774;2023-05-02T02:06:32;101480.19;;;9.86;100.00
13612;BME280;6877;51.436;6.774;2023-05-02T02:08:59;101474.97;;;9.86;100.00
13612;BME280;6877;51.436;6.774;2023-05-02T02:14:03;101483.66;;;9.91;100.00
13612;BME280;6877;51.436;6.774;2023-05-02T02:16:33;101493.25;;;9.94;100.00
13612;BME280;6877;51.436;6.774;2023-05-02T02:19:07;101489.75;;;9.93;100.00
13612;BME280;6877;51.436;6.774;2023-05-02T02:21:35;101495.88;;;9.94;100.00
13612;BME280;6877;51.436;6.774;2023-05-02T02:24:05;101503.69;;;9.95;100.00
13612;BME280;6877;51.436;6.774;2023-05-02T02:26:32;101497.63;;;9.93;100.00
13612;BME280;6877;51.436;6.774;2023-05-02T02:28:59;101496.72;;;9.94;100.00
13612;BME280;6877;51.436;6.774;2023-05-02T02:31:33;101497.63;;;9.93;100.00
13612;BME280;6877;51.436;6.774;2023-05-02T02:34:01;101500.22;;;9.92;100.00
13612;BME280;6877;51.436;6.774;2023-05-02T02:36:42;101499.34;;;9.91;100.00
13612;BME280;6877;51.436;6.774;2023-05-02T02:39:30;101504.59;;;9.90;100.00
13612;BME280;6877;51.436;6.774;2023-05-02T02:42:24;101504.56;;;9.91;100.00
13612;BME280;6877;51.436;6.774;2023-05-02T02:48:07;101522.03;;;9.91;100.00
13612;BME280;6877;51.436;6.774;2023-05-02T02:50:47;101515.03;;;9.91;100.00
13612;BME280;6877;51.436;6.774;2023-05-02T02:53:25;101510.69;;;9.92;100.00
13612;BME280;6877;51.436;6.774;2023-05-02T02:55:59;101515.91;;;9.93;100.00
13612;BME280;6877;51.436;6.774;2023-05-02T02:58:45;101511.53;;;9.94;100.00
13612;BME280;6877;51.436;6.774;2023-05-02T03:01:17;101510.69;;;9.96;100.00
13612;BME280;6877;51.436;6.774;2023-05-02T03:03:47;101516.75;;;9.95;100.00
13612;BME280;6877;51.436;6.774;2023-05-02T03:06:17;101516.75;;;9.95;100.00
13612;BME280;6877;51.436;6.774;2023-05-02T03:08:47;101521.13;;;9.96;100.00
13612;BME280;6877;51.436;6.774;2023-05-02T03:11:13;101514.13;;;9.95;100.00
13612;BME280;6877;51.436;6.774;2023-05-02T03:13:45;101519.38;;;9.95;100.00
13612;BME280;6877;51.436;6.774;2023-05-02T03:19:06;101523.72;;;9.95;100.00
13612;BME280;6877;51.436;6.774;2023-05-02T03:21:33;101522.88;;;9.94;100.00
13612;BME280;6877;51.436;6.774;2023-05-02T03:24:01;101528.97;;;9.96;100.00
13612;BME280;6877;51.436;6.774;2023-05-02T03:26:29;101525.47;;;9.96;100.00
13612;BME280;6877;51.436;6.774;2023-05-02T03:29:00;101530.69;;;9.96;100.00
13612;BME280;6877;51.436;6.774;2023-05-02T03:31:32;101538.56;;;9.97;100.00
13612;BME280;6877;51.436;6.774;2023-05-02T03:33:58;101537.69;;;9.97;100.00
13612;BME280;6877;51.436;6.774;2023-05-02T03:36:25;101546.38;;;9.99;100.00
13612;BME280;6877;51.436;6.774;2023-05-02T03:38:56;101537.66;;;9.98;100.00
13612;BME280;6877;51.436;6.774;2023-05-02T03:41:23;101538.53;;;9.99;100.00
13612;BME280;6877;51.436;6.774;2023-05-02T03:43:54;101540.28;;;9.98;100.00
13612;BME280;6877;51.436;6.774;2023-05-02T03:46:21;101541.16;;;9.97;100.00
13612;BME280;6877;51.436;6.774;2023-05-02T03:48:47;101541.16;;;9.97;100.00
13612;BME280;6877;51.436;6.774;2023-05-02T03:51:17;101550.75;;;9.95;100.00
13612;BME280;6877;51.436;6.774;2023-05-02T03:53:43;101551.63;;;9.97;100.00
13612;BME280;6877;51.436;6.774;2023-05-02T03:56:10;101550.75;;;9.98;100.00
13612;BME280;6877;51.436;6.774;2023-05-02T03:58:36;101547.28;;;10.00;100.00
13612;BME280;6877;51.436;6.774;2023-05-02T04:01:03;101558.59;;;10.00;100.00
13612;BME280;6877;51.436;6.774;2023-05-02T04:03:29;101560.31;;;10.01;100.00
13612;BME280;6877;51.436;6.774;2023-05-02T04:05:57;101561.19;;;10.02;100.00
13612;BME280;6877;51.436;6.774;2023-05-02T04:08:23;101566.41;;;10.02;100.00
13612;BME280;6877;51.436;6.774;2023-05-02T04:10:50;101572.50;;;10.02;100.00
13612;BME280;6877;51.436;6.774;2023-05-02T04:13:20;101571.66;;;10.02;100.00
13612;BME280;6877;51.436;6.774;2023-05-02T04:15:47;101573.41;;;10.03;100.00
13612;BME280;6877;51.436;6.774;2023-05-02T04:18:23;101580.38;;;10.01;100.00
13612;BME280;6877;51.436;6.774;2023-05-02T04:20:50;101579.50;;;9.98;100.00
13612;BME280;6877;51.436;6.774;2023-05-02T04:23:16;101584.72;;;9.98;100.00
13612;BME280;6877;51.436;6.774;2023-05-02T04:25:53;101580.41;;;9.94;100.00
13612;BME280;6877;51.436;6.774;2023-05-02T04:28:20;101586.50;;;9.92;100.00
13612;BME280;6877;51.436;6.774;2023-05-02T04:30:52;101590.88;;;9.87;100.00
13612;BME280;6877;51.436;6.774;2023-05-02T04:33:18;101589.16;;;9.81;100.00
13612;BME280;6877;51.436;6.774;2023-05-02T04:35:45;101592.63;;;9.72;100.00
13612;BME280;6877;51.436;6.774;2023-05-02T04:38:13;101601.34;;;9.67;100.00
13612;BME280;6877;51.436;6.774;2023-05-02T04:40:39;101604.84;;;9.60;100.00
13612;BME280;6877;51.436;6.774;2023-05-02T04:43:06;101600.50;;;9.54;100.00
13612;BME280;6877;51.436;6.774;2023-05-02T04:45:35;101607.47;;;9.54;100.00
13612;BME280;6877;51.436;6.774;2023-05-02T04:48:03;101614.44;;;9.50;100.00
13612;BME280;6877;51.436;6.774;2023-05-02T04:50:29;101618.81;;;9.46;100.00
13612;BME280;6877;51.436;6.774;2023-05-02T04:53:01;101619.66;;;9.45;100.00
13612;BME280;6877;51.436;6.774;2023-05-02T04:55:27;101626.63;;;9.45;100.00
13612;BME280;6877;51.436;6.774;2023-05-02T04:58:08;101631.88;;;9.43;100.00
13612;BME280;6877;51.436;6.774;2023-05-02T05:00:34;101637.94;;;9.42;100.00
13612;BME280;6877;51.436;6.774;2023-05-02T05:03:01;101641.44;;;9.38;100.00
13612;BME280;6877;51.436;6.774;2023-05-02T05:05:27;101651.88;;;9.38;100.00
13612;BME280;6877;51.436;6.774;2023-05-02T05:07:54;101654.50;;;9.37;100.00
13612;BME280;6877;51.436;6.774;2023-05-02T05:10:20;101664.94;;;9.32;100.00
13612;BME280;6877;51.436;6.774;2023-05-02T05:12:47;101657.97;;;9.29;100.00
13612;BME280;6877;51.436;6.774;2023-05-02T05:15:15;101664.06;;;9.24;100.00
13612;BME280;6877;51.436;6.774;2023-05-02T05:17:46;101665.78;;;9.16;100.00
13612;BME280;6877;51.436;6.774;2023-05-02T05:20:13;101674.50;;;9.12;100.00
13612;BME280;6877;51.436;6.774;2023-05-02T05:22:40;101671.00;;;9.10;100.00
13612;BME280;6877;51.436;6.774;2023-05-02T05:25:11;101679.69;;;9.09;100.00
13612;BME280;6877;51.436;6.774;2023-05-02T05:27:38;101675.31;;;9.04;100.00
13612;BME280;6877;51.436;6.774;2023-05-02T05:30:05;101675.34;;;9.03;100.00
13612;BME280;6877;51.436;6.774;2023-05-02T05:32:32;101679.66;;;9.01;100.00
13612;BME280;6877;51.436;6.774;2023-05-02T05:34:58;101679.69;;;9.02;100.00
13612;BME280;6877;51.436;6.774;2023-05-02T05:37:25;101684.06;;;9.05;100.00
13612;BME280;6877;51.436;6.774;2023-05-02T05:39:51;101691.88;;;9.03;100.00
13612;BME280;6877;51.436;6.774;2023-05-02T05:42:21;101691.00;;;9.00;100.00
13612;BME280;6877;51.436;6.774;2023-05-02T05:44:47;101705.75;;;8.98;100.00
13612;BME280;6877;51.436;6.774;2023-05-02T05:47:20;101708.38;;;8.95;100.00
13612;BME280;6877;51.436;6.774;2023-05-02T05:49:55;101719.69;;;8.92;100.00
13612;BME280;6877;51.436;6.774;2023-05-02T05:52:21;101718.78;;;8.92;100.00
13612;BME280;6877;51.436;6.774;2023-05-02T05:54:48;101716.22;;;8.93;100.00
13612;BME280;6877;51.436;6.774;2023-05-02T05:57:15;101717.09;;;8.97;100.00
13612;BME280;6877;51.436;6.774;2023-05-02T05:59:41;101723.19;;;9.00;100.00
13612;BME280;6877;51.436;6.774;2023-05-02T06:02:08;101715.38;;;9.07;100.00
13612;BME280;6877;51.436;6.774;2023-05-02T06:04:34;101721.50;;;9.15;100.00
13612;BME280;6877;51.436;6.774;2023-05-02T06:07:01;101723.25;;;9.25;100.00
13612;BME280;6877;51.436;6.774;2023-05-02T06:09:27;101726.78;;;9.33;100.00
13612;BME280;6877;51.436;6.774;2023-05-02T06:11:54;101725.06;;;9.40;100.00
13612;BME280;6877;51.436;6.774;2023-05-02T06:14:20;101729.41;;;9.47;100.00
13612;BME280;6877;51.436;6.774;2023-05-02T06:16:47;101734.66;;;9.56;100.00
13612;BME280;6877;51.436;6.774;2023-05-02T06:19:15;101738.13;;;9.64;100.00
13612;BME280;6877;51.436;6.774;2023-05-02T06:21:42;101742.50;;;9.70;100.00
13612;BME280;6877;51.436;6.774;2023-05-02T06:24:09;101738.16;;;9.75;100.00
13612;BME280;6877;51.436;6.774;2023-05-02T06:26:35;101751.22;;;9.84;100.00
13612;BME280;6877;51.436;6.774;2023-05-02T06:29:07;101756.47;;;9.90;100.00
13612;BME280;6877;51.436;6.774;2023-05-02T06:31:33;101763.41;;;9.96;100.00
13612;BME280;6877;51.436;6.774;2023-05-02T06:34:00;101759.06;;;9.98;100.00
13612;BME280;6877;51.436;6.774;2023-05-02T06:36:26;101770.41;;;9.98;100.00
13612;BME280;6877;51.436;6.774;2023-05-02T06:38:52;101782.63;;;10.00;100.00
13612;BME280;6877;51.436;6.774;2023-05-02T06:41:19;101779.09;;;10.05;99.33
13612;BME280;6877;51.436;6.774;2023-05-02T06:43:45;101779.13;;;10.13;99.10
13612;BME280;6877;51.436;6.774;2023-05-02T06:46:12;101786.97;;;10.17;98.00
13612;BME280;6877;51.436;6.774;2023-05-02T06:48:38;101787.81;;;10.12;97.30
13612;BME280;6877;51.436;6.774;2023-05-02T06:51:05;101795.69;;;10.03;95.86
13612;BME280;6877;51.436;6.774;2023-05-02T06:53:31;101804.41;;;9.97;97.56
13612;BME280;6877;51.436;6.774;2023-05-02T06:55:58;101803.53;;;9.90;96.82
13612;BME280;6877;51.436;6.774;2023-05-02T06:58:24;101806.13;;;9.87;97.34
13612;BME280;6877;51.436;6.774;2023-05-02T07:00:51;101814.84;;;9.79;96.39
13612;BME280;6877;51.436;6.774;2023-05-02T07:03:22;101813.94;;;9.66;95.72
13612;BME280;6877;51.436;6.774;2023-05-02T07:05:48;101820.03;;;9.59;96.51
13612;BME280;6877;51.436;6.774;2023-05-02T07:08:15;101827.88;;;9.59;96.75
13612;BME280;6877;51.436;6.774;2023-05-02T07:10:42;101833.94;;;9.56;95.98
13612;BME280;6877;51.436;6.774;2023-05-02T07:13:08;101830.47;;;9.57;95.88
13612;BME280;6877;51.436;6.774;2023-05-02T07:15:34;101831.31;;;9.55;96.45
13612;BME280;6877;51.436;6.774;2023-05-02T07:18:06;101842.66;;;9.58;96.12
13612;BME280;6877;51.436;6.774;2023-05-02T07:20:32;101848.78;;;9.66;94.07
13612;BME280;6877;51.436;6.774;2023-05-02T07:22:59;101852.25;;;9.67;93.13
13612;BME280;6877;51.436;6.774;2023-05-02T07:25:25;101852.28;;;9.70;93.29
13612;BME280;6877;51.436;6.774;2023-05-02T07:27:52;101854.06;;;9.86;93.41
13612;BME280;6877;51.436;6.774;2023-05-02T07:30:18;101863.69;;;9.96;91.57
13612;BME280;6877;51.436;6.774;2023-05-02T07:32:45;101848.00;;;9.96;91.06
13612;BME280;6877;51.436;6.774;2023-05-02T07:35:12;101864.53;;;9.95;90.75
13612;BME280;6877;51.436;6.774;2023-05-02T07:37:38;101868.03;;;9.94;89.75
13612;BME280;6877;51.436;6.774;2023-05-02T07:40:05;101869.75;;;9.98;89.79
13612;BME280;6877;51.436;6.774;2023-05-02T07:42:33;101867.19;;;10.06;88.09
13612;BME280;6877;51.436;6.774;2023-05-02T07:45:00;101872.41;;;10.23;87.66
13612;BME280;6877;51.436;6.774;2023-05-02T07:47:26;101882.91;;;10.43;88.80
13612;BME280;6877;51.436;6.774;2023-05-02T07:49:53;101880.31;;;10.57;84.89
13612;BME280;6877;51.436;6.774;2023-05-02T07:52:20;101884.69;;;10.62;85.79
13612;BME280;6877;51.436;6.774;2023-05-02T07:54:47;101889.91;;;10.67;85.63
13612;BME280;6877;51.436;6.774;2023-05-02T07:57:17;101895.13;;;10.65;85.63
13612;BME280;6877;51.436;6.774;2023-05-02T07:59:44;101893.41;;;10.63;85.39
13612;BME280;6877;51.436;6.774;2023-05-02T08:02:10;101900.38;;;10.61;85.16
13612;BME280;6877;51.436;6.774;2023-05-02T08:04:39;101903.00;;;10.64;85.38
13612;BME280;6877;51.436;6.774;2023-05-02T08:07:11;101903.00;;;10.67;85.43
13612;BME280;6877;51.436;6.774;2023-05-02T08:09:37;101900.38;;;10.64;85.94
13612;BME280;6877;51.436;6.774;2023-05-02T08:12:03;101903.88;;;10.61;85.40
13612;BME280;6877;51.436;6.774;2023-05-02T08:14:30;101903.88;;;10.58;84.55
13612;BME280;6877;51.436;6.774;2023-05-02T08:16:58;101911.72;;;10.63;85.52
13612;BME280;6877;51.436;6.774;2023-05-02T08:19:24;101916.97;;;10.63;84.12
13612;BME280;6877;51.436;6.774;2023-05-02T08:21:54;101928.28;;;10.50;83.93
13612;BME280;6877;51.436;6.774;2023-05-02T08:24:21;101928.28;;;10.28;84.87
13612;BME280;6877;51.436;6.774;2023-05-02T08:26:48;101932.56;;;10.14;84.98
13612;BME280;6877;51.436;6.774;2023-05-02T08:29:17;101941.28;;;10.10;84.98
13612;BME280;6877;51.436;6.774;2023-05-02T08:31:44;101950.88;;;10.06;85.19
13612;BME280;6877;51.436;6.774;2023-05-02T08:34:10;101967.44;;;10.07;83.25
13612;BME280;6877;51.436;6.774;2023-05-02T08:36:45;101970.09;;;10.25;83.20
13612;BME280;6877;51.436;6.774;2023-05-02T08:39:12;101965.81;;;10.46;82.59
13612;BME280;6877;51.436;6.774;2023-05-02T08:41:39;101970.19;;;10.89;80.89
13612;BME280;6877;51.436;6.774;2023-05-02T08:44:06;101969.25;;;11.33;79.14
13612;BME280;6877;51.436;6.774;2023-05-02T08:46:36;101971.72;;;11.81;77.12
13612;BME280;6877;51.436;6.774;2023-05-02T08:49:06;101974.94;;;12.43;75.77
13612;BME280;6877;51.436;6.774;2023-05-02T08:51:33;101979.56;;;13.98;69.52
13612;BME280;6877;51.436;6.774;2023-05-02T08:54:01;101985.06;;;13.81;66.13
13612;BME280;6877;51.436;6.774;2023-05-02T08:56:29;101984.03;;;13.91;66.53
13612;BME280;6877;51.436;6.774;2023-05-02T08:58:55;101983.97;;;13.96;65.78
13612;BME280;6877;51.436;6.774;2023-05-02T09:01:23;101993.72;;;13.91;65.20
13612;BME280;6877;51.436;6.774;2023-05-02T09:03:52;101995.69;;;13.71;63.43
13612;BME280;6877;51.436;6.774;2023-05-02T09:06:26;101990.69;;;13.46;64.70
13612;BME280;6877;51.436;6.774;2023-05-02T09:08:59;102004.59;;;13.60;64.21
13612;BME280;6877;51.436;6.774;2023-05-02T09:11:26;102002.22;;;13.37;62.61
13612;BME280;6877;51.436;6.774;2023-05-02T09:13:52;102016.03;;;14.29;60.50
13612;BME280;6877;51.436;6.774;2023-05-02T09:16:23;102017.75;;;14.92;58.13
13612;BME280;6877;51.436;6.774;2023-05-02T09:18:53;102018.25;;;15.62;54.87
13612;BME280;6877;51.436;6.774;2023-05-02T09:21:35;102019.66;;;15.81;54.79
13612;BME280;6877;51.436;6.774;2023-05-02T09:24:17;102021.41;;;16.24;54.13
13612;BME280;6877;51.436;6.774;2023-05-02T09:26:58;102020.56;;;17.00;50.49
13612;BME280;6877;51.436;6.774;2023-05-02T09:29:26;102032.59;;;16.35;51.19
13612;BME280;6877;51.436;6.774;2023-05-02T09:31:53;102030.22;;;15.33;51.76
13612;BME280;6877;51.436;6.774;2023-05-02T09:34:20;102029.25;;;15.37;53.27
13612;BME280;6877;51.436;6.774;2023-05-02T09:36:51;102034.63;;;15.33;52.55
13612;BME280;6877;51.436;6.774;2023-05-02T09:39:21;102028.19;;;15.94;50.90
13612;BME280;6877;51.436;6.774;2023-05-02T09:41:51;102032.75;;;15.87;48.90
13612;BME280;6877;51.436;6.774;2023-05-02T09:44:19;102038.00;;;15.87;49.96
13612;BME280;6877;51.436;6.774;2023-05-02T09:49:14;102039.50;;;16.01;50.26
13612;BME280;6877;51.436;6.774;2023-05-02T09:51:47;102045.16;;;15.82;50.21
13612;BME280;6877;51.436;6.774;2023-05-02T09:54:35;102043.09;;;15.50;50.53
13612;BME280;6877;51.436;6.774;2023-05-02T09:57:02;102051.31;;;15.33;50.05
13612;BME280;6877;51.436;6.774;2023-05-02T09:59:29;102054.25;;;14.60;50.45
13612;BME280;6877;51.436;6.774;2023-05-02T10:01:56;102053.34;;;13.94;52.34
13612;BME280;6877;51.436;6.774;2023-05-02T10:04:24;102055.59;;;13.44;55.57
13612;BME280;6877;51.436;6.774;2023-05-02T10:06:52;102052.28;;;13.17;57.29
13612;BME280;6877;51.436;6.774;2023-05-02T10:09:20;102059.34;;;13.11;57.33
13612;BME280;6877;51.436;6.774;2023-05-02T10:11:51;102055.97;;;12.96;57.78
13612;BME280;6877;51.436;6.774;2023-05-02T10:14:22;102057.00;;;12.77;58.01
13612;BME280;6877;51.436;6.774;2023-05-02T10:17:00;102055.47;;;12.35;58.09
13612;BME280;6877;51.436;6.774;2023-05-02T10:19:40;102059.03;;;12.27;58.51
13612;BME280;6877;51.436;6.774;2023-05-02T10:22:11;102048.56;;;12.18;58.27
13612;BME280;6877;51.436;6.774;2023-05-02T10:24:39;102058.22;;;12.04;58.72
13612;BME280;6877;51.436;6.774;2023-05-02T10:27:07;102065.28;;;11.99;59.96
13612;BME280;6877;51.436;6.774;2023-05-02T10:29:33;102071.41;;;11.87;60.02
13612;BME280;6877;51.436;6.774;2023-05-02T10:32:02;102072.25;;;11.81;59.63
13612;BME280;6877;51.436;6.774;2023-05-02T10:34:31;102068.81;;;11.67;60.39
13612;BME280;6877;51.436;6.774;2023-05-02T10:36:58;102067.03;;;11.69;60.90
13612;BME280;6877;51.436;6.774;2023-05-02T10:39:32;102069.69;;;11.74;60.67
13612;BME280;6877;51.436;6.774;2023-05-02T10:42:00;102070.56;;;11.68;60.67
13612;BME280;6877;51.436;6.774;2023-05-02T10:44:35;102076.69;;;11.70;61.04
13612;BME280;6877;51.436;6.774;2023-05-02T10:47:22;102074.91;;;11.74;60.06
13612;BME280;6877;51.436;6.774;2023-05-02T10:49:59;102078.41;;;11.74;58.34
13612;BME280;6877;51.436;6.774;2023-05-02T10:52:35;102078.38;;;11.91;57.76
13612;BME280;6877;51.436;6.774;2023-05-02T10:55:20;102078.31;;;12.17;55.57
13612;BME280;6877;51.436;6.774;2023-05-02T11:00:26;102086.81;;;12.68;54.29
13612;BME280;6877;51.436;6.774;2023-05-02T11:02:53;102087.53;;;12.92;53.01
13612;BME280;6877;51.436;6.774;2023-05-02T11:05:20;102080.25;;;13.32;52.34
13612;BME280;6877;51.436;6.774;2023-05-02T11:07:47;102072.16;;;13.54;51.17
13612;BME280;6877;51.436;6.774;2023-05-02T11:12:48;102091.34;;;14.41;48.36
13612;BME280;6877;51.436;6.774;2023-05-02T11:18:10;102085.50;;;15.39;46.15
13612;BME280;6877;51.436;6.774;2023-05-02T11:20:42;102096.72;;;16.43;43.66
13612;BME280;6877;51.436;6.774;2023-05-02T11:25:49;102091.22;;;19.14;36.20
13612;BME280;6877;51.436;6.774;2023-05-02T11:28:41;102086.84;;;19.65;33.62
13612;BME280;6877;51.436;6.774;2023-05-02T11:33:59;102098.13;;;19.18;34.45
13612;BME280;6877;51.436;6.774;2023-05-02T11:36:33;102090.31;;;17.97;37.11
13612;BME280;6877;51.436;6.774;2023-05-02T11:39:01;102088.59;;;16.91;39.87
13612;BME280;6877;51.436;6.774;2023-05-02T11:41:41;102093.59;;;16.23;41.10
13612;BME280;6877;51.436;6.774;2023-05-02T11:44:08;102088.69;;;16.06;41.46
13612;BME280;6877;51.436;6.774;2023-05-02T11:46:39;102097.88;;;16.30;41.66
13612;BME280;6877;51.436;6.774;2023-05-02T11:49:06;102093.16;;;16.44;40.97
13612;BME280;6877;51.436;6.774;2023-05-02T11:51:34;102102.41;;;16.64;40.22
13612;BME280;6877;51.436;6.774;2023-05-02T11:54:00;102102.41;;;16.65;39.29
13612;BME280;6877;51.436;6.774;2023-05-02T11:56:27;102110.41;;;16.62;39.17
13612;BME280;6877;51.436;6.774;2023-05-02T11:58:58;102104.75;;;16.79;38.05
13612;BME280;6877;51.436;6.774;2023-05-02T12:01:26;102115.50;;;17.10;38.03
13612;BME280;6877;51.436;6.774;2023-05-02T12:04:05;102103.81;;;17.19;37.29
13612;BME280;6877;51.436;6.774;2023-05-02T12:06:33;102108.97;;;17.25;37.85
13612;BME280;6877;51.436;6.774;2023-05-02T12:09:08;102115.25;;;16.82;37.82
13612;BME280;6877;51.436;6.774;2023-05-02T12:11:40;102116.19;;;16.81;37.68
13612;BME280;6877;51.436;6.774;2023-05-02T12:14:06;102110.16;;;16.73;37.32
13612;BME280;6877;51.436;6.774;2023-05-02T12:16:38;102117.06;;;16.40;37.55
13612;BME280;6877;51.436;6.774;2023-05-02T12:19:04;102112.69;;;16.37;38.10
13612;BME280;6877;51.436;6.774;2023-05-02T12:21:31;102121.66;;;16.30;38.95
13612;BME280;6877;51.436;6.774;2023-05-02T12:23:59;102117.38;;;16.25;38.38
13612;BME280;6877;51.436;6.774;2023-05-02T12:26:26;102123.25;;;16.37;38.74
13612;BME280;6877;51.436;6.774;2023-05-02T12:28:58;102118.53;;;16.52;38.69
13612;BME280;6877;51.436;6.774;2023-05-02T12:31:24;102113.84;;;16.24;38.33
13612;BME280;6877;51.436;6.774;2023-05-02T12:33:58;102123.75;;;16.13;38.82
13612;BME280;6877;51.436;6.774;2023-05-02T12:36:26;102127.00;;;16.27;37.63
13612;BME280;6877;51.436;6.774;2023-05-02T12:38:55;102133.84;;;16.79;37.09
13612;BME280;6877;51.436;6.774;2023-05-02T12:41:37;102139.03;;;17.21;36.59
13612;BME280;6877;51.436;6.774;2023-05-02T12:44:05;102132.56;;;17.34;36.33
13612;BME280;6877;51.436;6.774;2023-05-02T12:46:32;102135.06;;;17.02;36.25
13612;BME280;6877;51.436;6.774;2023-05-02T12:49:06;102142.31;;;16.52;36.67
13612;BME280;6877;51.436;6.774;2023-05-02T12:51:34;102143.72;;;16.28;37.27
13612;BME280;6877;51.436;6.774;2023-05-02T12:54:02;102140.09;;;16.33;37.77
13612;BME280;6877;51.436;6.774;2023-05-02T12:56:29;102143.31;;;16.03;38.14
13612;BME280;6877;51.436;6.774;2023-05-02T12:58:57;102148.06;;;15.84;38.45
13612;BME280;6877;51.436;6.774;2023-05-02T13:01:31;102149.75;;;15.89;38.70
13612;BME280;6877;51.436;6.774;2023-05-02T13:03:58;102140.94;;;15.89;38.93
13612;BME280;6877;51.436;6.774;2023-05-02T13:06:25;102158.53;;;15.90;38.75
13612;BME280;6877;51.436;6.774;2023-05-02T13:08:51;102159.41;;;15.90;38.92
13612;BME280;6877;51.436;6.774;2023-05-02T13:11:21;102146.69;;;15.61;38.86
13612;BME280;6877;51.436;6.774;2023-05-02T13:13:47;102145.22;;;15.45;39.87
13612;BME280;6877;51.436;6.774;2023-05-02T13:16:14;102148.56;;;15.55;39.43
13612;BME280;6877;51.436;6.774;2023-05-02T13:18:40;102143.78;;;15.78;39.33
13612;BME280;6877;51.436;6.774;2023-05-02T13:21:07;102143.72;;;15.81;38.39
13612;BME280;6877;51.436;6.774;2023-05-02T13:23:33;102134.75;;;15.37;39.40
13612;BME280;6877;51.436;6.774;2023-05-02T13:26:00;102143.44;;;15.45;39.98
13612;BME280;6877;51.436;6.774;2023-05-02T13:28:31;102144.22;;;15.50;38.93
13612;BME280;6877;51.436;6.774;2023-05-02T13:30:58;102135.53;;;15.44;39.35
13612;BME280;6877;51.436;6.774;2023-05-02T13:33:25;102142.44;;;15.52;39.30
13612;BME280;6877;51.436;6.774;2023-05-02T13:35:51;102138.78;;;15.60;39.43
13612;BME280;6877;51.436;6.774;2023-05-02T13:38:21;102153.88;;;15.51;39.11
13612;BME280;6877;51.436;6.774;2023-05-02T13:40:52;102156.69;;;15.42;39.27
13612;BME280;6877;51.436;6.774;2023-05-02T13:43:19;102147.22;;;15.27;39.53